createdAt,value
2018-12-29T00:00:09.737Z,1.05
2018-12-29T00:01:16.512Z,1.06
2018-12-29T00:02:23.772Z,1.05
2018-12-29T00:03:30.553Z,1.06
2018-12-29T00:04:37.352Z,1.05
2018-12-29T00:05:44.085Z,1.05
2018-12-29T00:06:50.857Z,1.04
2018-12-29T00:07:57.505Z,1.04
2018-12-29T00:09:04.772Z,1.04
2018-12-29T00:10:11.404Z,1.04
2018-12-29T00:11:18.613Z,1.05
2018-12-29T00:12:25.393Z,1.04
2018-12-29T00:13:32.146Z,1.05
2018-12-29T00:14:38.937Z,1.03
2018-12-29T00:15:45.672Z,1.04
2018-12-29T00:16:52.442Z,1.04
2018-12-29T00:17:59.219Z,1.03
2018-12-29T00:19:05.941Z,1.04
2018-12-29T00:20:12.663Z,1.03
2018-12-29T00:21:19.340Z,1.04
2018-12-29T00:22:26.567Z,1.04
2018-12-29T00:23:33.760Z,1.04
2018-12-29T00:24:40.492Z,1.04
2018-12-29T00:25:47.572Z,1.04
2018-12-29T00:26:54.827Z,1.04
2018-12-29T00:28:01.434Z,1.03
2018-12-29T00:29:08.607Z,1.03
2018-12-29T00:30:15.800Z,1.03
2018-12-29T00:31:22.547Z,1.04
2018-12-29T00:32:29.194Z,1.04
2018-12-29T00:33:36.097Z,1.03
2018-12-29T00:34:42.722Z,1.03
2018-12-29T00:35:49.916Z,1.03
2018-12-29T00:36:56.685Z,1.03
2018-12-29T00:38:03.566Z,1.03
2018-12-29T00:39:10.307Z,1.03
2018-12-29T00:40:17.012Z,1.04
2018-12-29T00:41:23.722Z,1.05
2018-12-29T00:42:30.389Z,1.03
2018-12-29T00:43:37.585Z,1.04
2018-12-29T00:44:44.138Z,1.03
2018-12-29T00:45:51.435Z,1.03
2018-12-29T00:46:58.073Z,1.03
2018-12-29T00:48:05.347Z,1.04
2018-12-29T00:49:12.005Z,1.05
2018-12-29T00:50:19.152Z,1.04
2018-12-29T00:51:26.261Z,1.03
2018-12-29T00:52:33.438Z,1.05
2018-12-29T00:53:40.089Z,1.06
2018-12-29T00:54:47.263Z,1.05
2018-12-29T00:55:54.064Z,1.05
2018-12-29T00:57:00.698Z,1.03
2018-12-29T00:58:07.956Z,1.03
2018-12-29T00:59:14.539Z,1.04
2018-12-29T01:00:21.720Z,1.05
2018-12-29T01:01:28.682Z,1.04
2018-12-29T01:02:35.440Z,1.04
2018-12-29T01:03:42.024Z,1.04
2018-12-29T01:04:49.148Z,1.04
2018-12-29T01:05:56.314Z,1.05
2018-12-29T01:07:02.917Z,1.05
2018-12-29T01:08:10.097Z,1.04
2018-12-29T01:09:17.271Z,1.05
2018-12-29T01:10:24.089Z,1.03
2018-12-29T01:11:30.993Z,1.05
2018-12-29T01:12:37.688Z,1.03
2018-12-29T01:13:44.435Z,1.04
2018-12-29T01:14:51.201Z,1.03
2018-12-29T01:15:57.876Z,1.04
2018-12-29T01:17:05.095Z,1.04
2018-12-29T01:18:11.640Z,1.04
2018-12-29T01:19:18.869Z,1.04
2018-12-29T01:20:25.525Z,1.04
2018-12-29T01:21:32.583Z,1.04
2018-12-29T01:22:39.830Z,1.05
2018-12-29T01:23:46.400Z,1.04
2018-12-29T01:24:53.612Z,1.04
2018-12-29T01:26:00.292Z,1.04
2018-12-29T01:27:07.047Z,1.04
2018-12-29T01:28:13.692Z,1.04
2018-12-29T01:29:20.969Z,1.05
2018-12-29T01:30:27.665Z,1.05
2018-12-29T01:31:34.869Z,1.04
2018-12-29T01:32:41.612Z,1.06
2018-12-29T01:33:48.262Z,1.05
2018-12-29T01:34:55.516Z,1.04
2018-12-29T01:36:02.201Z,1.05
2018-12-29T01:37:09.468Z,1.04
2018-12-29T01:38:16.248Z,1.05
2018-12-29T01:39:22.980Z,1.05
2018-12-29T01:40:29.780Z,1.05
2018-12-29T01:41:36.540Z,1.05
2018-12-29T01:42:43.186Z,1.05
2018-12-29T01:43:50.461Z,1.04
2018-12-29T01:44:57.125Z,1.05
2018-12-29T01:46:04.403Z,1.05
2018-12-29T01:47:10.990Z,1.05
2018-12-29T01:48:18.068Z,1.05
2018-12-29T01:49:25.292Z,1.07
2018-12-29T01:50:31.796Z,1.05
2018-12-29T01:51:38.982Z,1.04
2018-12-29T01:52:46.037Z,1.05
2018-12-29T01:53:53.203Z,1.05
2018-12-29T01:55:00.506Z,1.05
2018-12-29T01:56:07.337Z,1.05
2018-12-29T01:57:13.928Z,1.04
2018-12-29T01:58:21.476Z,1.07
2018-12-29T01:59:28.244Z,1.05
2018-12-29T02:00:34.884Z,1.08
2018-12-29T02:01:42.001Z,1.08
2018-12-29T02:02:49.276Z,1.07
2018-12-29T02:03:56.466Z,1.09
2018-12-29T02:05:03.093Z,1.08
2018-12-29T02:06:10.268Z,1.09
2018-12-29T02:07:17.397Z,1.08
2018-12-29T02:08:24.607Z,1.09
2018-12-29T02:09:31.264Z,1.08
2018-12-29T02:10:38.480Z,1.08
2018-12-29T02:11:45.085Z,1.09
2018-12-29T02:12:52.312Z,1.07
2018-12-29T02:13:59.073Z,1.08
2018-12-29T02:15:05.780Z,1.08
2018-12-29T02:16:12.476Z,1.08
2018-12-29T02:17:19.945Z,1.07
2018-12-29T02:18:26.536Z,1.08
2018-12-29T02:19:33.695Z,1.07
2018-12-29T02:20:40.880Z,1.08
2018-12-29T02:21:47.529Z,1.08
2018-12-29T02:22:54.721Z,1.08
2018-12-29T02:24:01.348Z,1.09
2018-12-29T02:25:08.173Z,1.08
2018-12-29T02:26:14.796Z,1.09
2018-12-29T02:27:21.979Z,1.08
2018-12-29T02:28:28.540Z,1.08
2018-12-29T02:29:35.819Z,1.07
2018-12-29T02:30:42.477Z,1.08
2018-12-29T02:31:49.662Z,1.07
2018-12-29T02:32:56.438Z,1.07
2018-12-29T02:34:03.045Z,1.08
2018-12-29T02:35:10.155Z,1.09
2018-12-29T02:36:17.228Z,1.09
2018-12-29T02:37:24.500Z,1.09
2018-12-29T02:38:31.177Z,1.09
2018-12-29T02:39:38.430Z,1.09
2018-12-29T02:40:44.973Z,1.09
2018-12-29T02:41:52.284Z,1.10
2018-12-29T02:42:58.937Z,1.11
2018-12-29T02:44:06.145Z,1.10
2018-12-29T02:45:12.777Z,1.10
2018-12-29T02:46:20.057Z,1.09
2018-12-29T02:47:27.007Z,1.10
2018-12-29T02:48:33.715Z,1.10
2018-12-29T02:49:40.363Z,1.09
2018-12-29T02:50:47.536Z,1.10
2018-12-29T02:51:54.198Z,1.10
2018-12-29T02:53:01.246Z,1.11
2018-12-29T02:54:08.562Z,1.09
2018-12-29T02:55:15.289Z,1.10
2018-12-29T02:56:22.102Z,1.09
2018-12-29T02:57:28.726Z,1.10
2018-12-29T02:58:36.019Z,1.10
2018-12-29T02:59:42.708Z,1.10
2018-12-29T03:00:49.899Z,1.10
2018-12-29T03:01:56.577Z,1.12
2018-12-29T03:03:03.651Z,1.11
2018-12-29T03:04:10.813Z,1.11
2018-12-29T03:05:17.921Z,1.12
2018-12-29T03:06:25.091Z,1.12
2018-12-29T03:07:31.780Z,1.11
2018-12-29T03:08:39.064Z,1.13
2018-12-29T03:09:45.705Z,1.11
2018-12-29T03:10:52.965Z,1.12
2018-12-29T03:11:59.484Z,1.12
2018-12-29T03:13:06.816Z,1.12
2018-12-29T03:14:13.510Z,1.13
2018-12-29T03:15:20.127Z,1.12
2018-12-29T03:16:27.278Z,1.12
2018-12-29T03:17:34.490Z,1.12
2018-12-29T03:18:41.163Z,1.14
2018-12-29T03:19:48.253Z,1.13
2018-12-29T03:20:55.510Z,1.13
2018-12-29T03:22:02.111Z,1.14
2018-12-29T03:23:09.149Z,1.13
2018-12-29T03:24:16.337Z,1.13
2018-12-29T03:25:23.044Z,1.14
2018-12-29T03:26:29.742Z,1.14
2018-12-29T03:27:36.595Z,1.14
2018-12-29T03:28:43.272Z,1.13
2018-12-29T03:29:50.057Z,1.13
2018-12-29T03:30:56.618Z,1.13
2018-12-29T03:32:03.760Z,1.15
2018-12-29T03:33:10.850Z,1.17
2018-12-29T03:34:18.018Z,1.15
2018-12-29T03:35:25.193Z,1.16
2018-12-29T03:36:31.759Z,1.13
2018-12-29T03:37:38.921Z,1.15
2018-12-29T03:38:45.597Z,1.15
2018-12-29T03:39:52.787Z,1.14
2018-12-29T03:40:59.384Z,1.15
2018-12-29T03:42:06.696Z,1.16
2018-12-29T03:43:13.357Z,1.16
2018-12-29T03:44:20.607Z,1.16
2018-12-29T03:45:27.196Z,1.15
2018-12-29T03:46:34.277Z,1.16
2018-12-29T03:47:41.449Z,1.17
2018-12-29T03:48:48.534Z,1.16
2018-12-29T03:49:55.710Z,1.16
2018-12-29T03:51:02.966Z,1.16
2018-12-29T03:52:09.734Z,1.16
2018-12-29T03:53:16.509Z,1.17
2018-12-29T03:54:23.345Z,1.17
2018-12-29T03:55:29.982Z,1.16
2018-12-29T03:56:37.207Z,1.17
2018-12-29T03:57:43.970Z,1.18
2018-12-29T03:58:50.616Z,1.17
2018-12-29T03:59:57.329Z,1.17
2018-12-29T04:01:04.155Z,1.18
2018-12-29T04:02:10.696Z,1.18
2018-12-29T04:03:17.903Z,1.17
2018-12-29T04:04:24.560Z,1.18
2018-12-29T04:05:31.667Z,1.18
2018-12-29T04:06:38.931Z,1.18
2018-12-29T04:07:45.579Z,1.19
2018-12-29T04:08:52.850Z,1.19
2018-12-29T04:09:59.718Z,1.19
2018-12-29T04:11:06.514Z,1.20
2018-12-29T04:12:13.057Z,1.18
2018-12-29T04:13:19.917Z,1.19
2018-12-29T04:14:26.796Z,1.20
2018-12-29T04:15:33.377Z,1.20
2018-12-29T04:16:40.524Z,1.20
2018-12-29T04:17:47.689Z,1.19
2018-12-29T04:18:54.869Z,1.19
2018-12-29T04:20:01.974Z,1.21
2018-12-29T04:21:08.620Z,1.20
2018-12-29T04:22:15.766Z,1.20
2018-12-29T04:23:23.071Z,1.20
2018-12-29T04:24:29.720Z,1.21
2018-12-29T04:25:36.500Z,1.22
2018-12-29T04:26:43.041Z,1.22
2018-12-29T04:27:50.315Z,1.20
2018-12-29T04:28:57.084Z,1.20
2018-12-29T04:30:04.248Z,1.22
2018-12-29T04:31:10.951Z,1.23
2018-12-29T04:32:18.093Z,1.23
2018-12-29T04:33:25.385Z,1.23
2018-12-29T04:34:32.037Z,1.23
2018-12-29T04:35:38.820Z,1.24
2018-12-29T04:36:45.361Z,1.23
2018-12-29T04:37:52.540Z,1.24
2018-12-29T04:38:59.088Z,1.25
2018-12-29T04:40:06.373Z,1.24
2018-12-29T04:41:13.149Z,1.24
2018-12-29T04:42:20.541Z,1.24
2018-12-29T04:43:27.284Z,1.25
2018-12-29T04:44:33.952Z,1.25
2018-12-29T04:45:41.035Z,1.26
2018-12-29T04:46:47.603Z,1.26
2018-12-29T04:47:54.848Z,1.26
2018-12-29T04:49:01.612Z,1.26
2018-12-29T04:50:08.275Z,1.27
2018-12-29T04:51:15.381Z,1.26
2018-12-29T04:52:22.552Z,1.27
2018-12-29T04:53:29.276Z,1.26
2018-12-29T04:54:36.060Z,1.27
2018-12-29T04:55:42.721Z,1.26
2018-12-29T04:56:49.950Z,1.28
2018-12-29T04:57:56.757Z,1.27
2018-12-29T04:59:03.470Z,1.27
2018-12-29T05:00:10.804Z,1.27
2018-12-29T05:01:17.484Z,1.26
2018-12-29T05:02:24.977Z,1.27
2018-12-29T05:03:31.813Z,1.28
2018-12-29T05:04:38.572Z,1.27
2018-12-29T05:05:45.208Z,1.28
2018-12-29T05:06:52.384Z,1.28
2018-12-29T05:07:58.964Z,1.28
2018-12-29T05:09:06.145Z,1.27
2018-12-29T05:10:12.930Z,1.29
2018-12-29T05:11:19.670Z,1.28
2018-12-29T05:12:26.453Z,1.29
2018-12-29T05:13:33.544Z,1.29
2018-12-29T05:14:40.803Z,1.29
2018-12-29T05:15:47.546Z,1.30
2018-12-29T05:16:54.228Z,1.31
2018-12-29T05:18:00.888Z,1.31
2018-12-29T05:19:08.164Z,1.30
2018-12-29T05:20:14.841Z,1.29
2018-12-29T05:21:22.100Z,1.32
2018-12-29T05:22:28.772Z,1.31
2018-12-29T05:23:35.532Z,1.32
2018-12-29T05:24:42.106Z,1.31
2018-12-29T05:25:49.387Z,1.32
2018-12-29T05:26:56.063Z,1.31
2018-12-29T05:28:02.888Z,1.31
2018-12-29T05:29:09.564Z,1.31
2018-12-29T05:30:16.214Z,1.32
2018-12-29T05:31:23.512Z,1.33
2018-12-29T05:32:30.273Z,1.32
2018-12-29T05:33:37.126Z,1.32
2018-12-29T05:34:43.792Z,1.31
2018-12-29T05:35:51.011Z,1.32
2018-12-29T05:36:57.721Z,1.32
2018-12-29T05:38:04.519Z,1.33
2018-12-29T05:39:11.089Z,1.32
2018-12-29T05:40:18.301Z,1.33
2018-12-29T05:41:24.955Z,1.33
2018-12-29T05:42:32.093Z,1.34
2018-12-29T05:43:39.252Z,1.33
2018-12-29T05:44:45.920Z,1.34
2018-12-29T05:45:53.184Z,1.34
2018-12-29T05:46:59.752Z,1.33
2018-12-29T05:48:07.036Z,1.35
2018-12-29T05:49:13.684Z,1.34
2018-12-29T05:50:20.959Z,1.34
2018-12-29T05:51:27.617Z,1.35
2018-12-29T05:52:34.924Z,1.35
2018-12-29T05:53:41.667Z,1.34
2018-12-29T05:54:48.254Z,1.35
2018-12-29T05:55:55.381Z,1.36
2018-12-29T05:57:02.581Z,1.35
2018-12-29T05:58:09.248Z,1.35
2018-12-29T05:59:16.001Z,1.36
2018-12-29T06:00:22.764Z,1.36
2018-12-29T06:01:29.432Z,1.36
2018-12-29T06:02:36.197Z,1.37
2018-12-29T06:03:42.869Z,1.36
2018-12-29T06:04:50.059Z,1.37
2018-12-29T06:05:56.631Z,1.37
2018-12-29T06:07:03.879Z,1.37
2018-12-29T06:08:10.652Z,1.37
2018-12-29T06:09:17.309Z,1.37
2018-12-29T06:10:24.473Z,1.37
2018-12-29T06:11:31.645Z,1.38
2018-12-29T06:12:38.352Z,1.37
2018-12-29T06:13:44.986Z,1.37
2018-12-29T06:14:52.248Z,1.39
2018-12-29T06:15:58.860Z,1.38
2018-12-29T06:17:06.177Z,1.39
2018-12-29T06:18:12.880Z,1.39
2018-12-29T06:19:20.128Z,1.38
2018-12-29T06:20:26.789Z,1.38
2018-12-29T06:21:33.452Z,1.39
2018-12-29T06:22:40.929Z,1.40
2018-12-29T06:23:47.515Z,1.39
2018-12-29T06:24:54.772Z,1.40
2018-12-29T06:26:01.404Z,1.39
2018-12-29T06:27:08.605Z,1.41
2018-12-29T06:28:15.285Z,1.40
2018-12-29T06:29:22.052Z,1.40
2018-12-29T06:30:28.704Z,1.42
2018-12-29T06:31:35.971Z,1.42
2018-12-29T06:32:42.652Z,1.43
2018-12-29T06:33:49.802Z,1.42
2018-12-29T06:34:56.476Z,1.42
2018-12-29T06:36:03.252Z,1.42
2018-12-29T06:37:09.802Z,1.42
2018-12-29T06:38:16.993Z,1.43
2018-12-29T06:39:23.765Z,1.41
2018-12-29T06:40:30.512Z,1.43
2018-12-29T06:41:37.261Z,1.44
2018-12-29T06:42:43.934Z,1.43
2018-12-29T06:43:50.805Z,1.44
2018-12-29T06:44:57.789Z,1.45
2018-12-29T06:46:05.004Z,1.43
2018-12-29T06:47:11.614Z,1.43
2018-12-29T06:48:18.829Z,1.45
2018-12-29T06:49:25.611Z,1.45
2018-12-29T06:50:32.311Z,1.45
2018-12-29T06:51:39.602Z,1.46
2018-12-29T06:52:46.433Z,1.45
2018-12-29T06:53:53.507Z,1.46
2018-12-29T06:54:59.893Z,1.47
2018-12-29T06:56:07.082Z,1.46
2018-12-29T06:57:13.887Z,1.47
2018-12-29T06:58:21.156Z,1.47
2018-12-29T06:59:27.728Z,1.47
2018-12-29T07:00:34.964Z,1.48
2018-12-29T07:01:41.696Z,1.47
2018-12-29T07:02:48.368Z,1.51
2018-12-29T07:03:55.465Z,1.50
2018-12-29T07:05:02.800Z,1.49
2018-12-29T07:06:09.914Z,1.50
2018-12-29T07:07:16.548Z,1.50
2018-12-29T07:08:23.733Z,1.49
2018-12-29T07:09:30.407Z,1.49
2018-12-29T07:10:37.516Z,1.50
2018-12-29T07:11:44.735Z,1.49
2018-12-29T07:12:51.917Z,1.51
2018-12-29T07:13:58.550Z,1.51
2018-12-29T07:15:05.772Z,1.50
2018-12-29T07:16:12.437Z,1.49
2018-12-29T07:17:19.605Z,1.49
2018-12-29T07:18:26.672Z,1.50
2018-12-29T07:19:33.788Z,1.51
2018-12-29T07:20:40.936Z,1.51
2018-12-29T07:21:47.686Z,1.50
2018-12-29T07:22:54.435Z,1.51
2018-12-29T07:24:01.105Z,1.50
2018-12-29T07:25:08.330Z,1.51
2018-12-29T07:26:15.072Z,1.50
2018-12-29T07:27:21.812Z,1.51
2018-12-29T07:28:28.388Z,1.51
2018-12-29T07:29:38.396Z,1.50
2018-12-29T07:30:42.523Z,1.51
2018-12-29T07:31:49.292Z,1.52
2018-12-29T07:32:56.133Z,1.53
2018-12-29T07:34:02.717Z,1.53
2018-12-29T07:35:09.992Z,1.53
2018-12-29T07:36:16.669Z,1.53
2018-12-29T07:37:23.938Z,1.55
2018-12-29T07:38:30.586Z,1.55
2018-12-29T07:39:37.880Z,1.55
2018-12-29T07:40:44.565Z,1.55
2018-12-29T07:41:51.266Z,1.55
2018-12-29T07:42:58.462Z,1.55
2018-12-29T07:44:05.320Z,1.55
2018-12-29T07:45:12.029Z,1.56
2018-12-29T07:46:18.628Z,1.55
2018-12-29T07:47:25.794Z,1.54
2018-12-29T07:48:32.501Z,1.56
2018-12-29T07:49:39.245Z,1.56
2018-12-29T07:50:45.859Z,1.56
2018-12-29T07:51:53.112Z,1.56
2018-12-29T07:52:59.859Z,1.56
2018-12-29T07:54:06.328Z,1.56
2018-12-29T07:55:13.433Z,1.56
2018-12-29T07:56:20.688Z,1.56
2018-12-29T07:57:27.640Z,1.56
2018-12-29T07:58:34.201Z,1.56
2018-12-29T07:59:41.364Z,1.57
2018-12-29T08:00:48.437Z,1.57
2018-12-29T08:01:55.633Z,1.58
2018-12-29T08:03:02.385Z,1.57
2018-12-29T08:04:09.145Z,1.56
2018-12-29T08:05:16.031Z,1.58
2018-12-29T08:06:22.727Z,1.56
2018-12-29T08:07:29.328Z,1.58
2018-12-29T08:08:36.614Z,1.58
2018-12-29T08:09:43.381Z,1.58
2018-12-29T08:10:50.257Z,1.60
2018-12-29T08:11:56.920Z,1.59
2018-12-29T08:13:05.223Z,1.60
2018-12-29T08:14:10.964Z,1.60
2018-12-29T08:15:17.816Z,1.60
2018-12-29T08:16:24.596Z,1.60
2018-12-29T08:17:31.296Z,1.60
2018-12-29T08:18:38.035Z,1.62
2018-12-29T08:19:44.771Z,1.61
2018-12-29T08:20:51.560Z,1.62
2018-12-29T08:21:58.229Z,1.60
2018-12-29T08:23:04.984Z,1.62
2018-12-29T08:24:11.551Z,1.62
2018-12-29T08:25:18.708Z,1.62
2018-12-29T08:26:25.467Z,1.62
2018-12-29T08:27:32.266Z,1.63
2018-12-29T08:28:39.000Z,1.62
2018-12-29T08:29:45.615Z,1.62
2018-12-29T08:30:52.820Z,1.63
2018-12-29T08:31:59.453Z,1.63
2018-12-29T08:33:06.278Z,1.65
2018-12-29T08:34:13.048Z,1.64
2018-12-29T08:35:19.699Z,1.65
2018-12-29T08:36:26.831Z,1.64
2018-12-29T08:37:33.948Z,1.65
2018-12-29T08:38:41.021Z,1.64
2018-12-29T08:39:48.186Z,1.65
2018-12-29T08:40:55.465Z,1.65
2018-12-29T08:42:02.161Z,1.65
2018-12-29T08:43:08.719Z,1.65
2018-12-29T08:44:15.840Z,1.66
2018-12-29T08:45:23.148Z,1.67
2018-12-29T08:46:29.816Z,1.67
2018-12-29T08:47:37.092Z,1.66
2018-12-29T08:48:43.668Z,1.66
2018-12-29T08:49:50.848Z,1.65
2018-12-29T08:50:57.589Z,1.68
2018-12-29T08:52:04.557Z,1.67
2018-12-29T08:53:11.233Z,1.67
2018-12-29T08:54:17.879Z,1.67
2018-12-29T08:55:25.252Z,1.68
2018-12-29T08:56:31.933Z,1.68
2018-12-29T08:57:39.225Z,1.69
2018-12-29T08:58:45.811Z,1.69
2018-12-29T08:59:52.928Z,1.69
2018-12-29T09:01:00.109Z,1.70
2018-12-29T09:02:07.398Z,1.70
2018-12-29T09:03:14.064Z,1.70
2018-12-29T09:04:21.413Z,1.71
2018-12-29T09:05:28.102Z,1.69
2018-12-29T09:06:34.749Z,1.70
2018-12-29T09:07:42.040Z,1.71
2018-12-29T09:08:48.796Z,1.71
2018-12-29T09:09:55.885Z,1.71
2018-12-29T09:11:03.061Z,1.72
2018-12-29T09:12:10.200Z,1.73
2018-12-29T09:13:17.299Z,1.73
2018-12-29T09:14:24.552Z,1.72
2018-12-29T09:15:31.233Z,1.73
2018-12-29T09:16:37.984Z,1.73
2018-12-29T09:17:44.775Z,1.75
2018-12-29T09:18:51.469Z,1.74
2018-12-29T09:19:57.976Z,1.74
2018-12-29T09:21:05.171Z,1.75
2018-12-29T09:22:11.801Z,1.74
2018-12-29T09:23:21.153Z,1.73
2018-12-29T09:24:25.852Z,1.75
2018-12-29T09:25:32.529Z,1.76
2018-12-29T09:26:39.285Z,1.76
2018-12-29T09:27:45.950Z,1.76
2018-12-29T09:28:53.224Z,1.77
2018-12-29T09:29:59.783Z,1.77
2018-12-29T09:31:07.058Z,1.77
2018-12-29T09:32:13.810Z,1.78
2018-12-29T09:33:21.758Z,1.77
2018-12-29T09:34:27.452Z,1.78
2018-12-29T09:35:34.636Z,1.80
2018-12-29T09:36:41.329Z,1.79
2018-12-29T09:37:48.565Z,1.79
2018-12-29T09:38:55.253Z,1.80
2018-12-29T09:40:02.397Z,1.78
2018-12-29T09:41:09.273Z,1.81
2018-12-29T09:42:16.037Z,1.81
2018-12-29T09:43:23.365Z,1.81
2018-12-29T09:44:29.957Z,1.82
2018-12-29T09:45:37.260Z,1.82
2018-12-29T09:46:43.804Z,1.82
2018-12-29T09:47:51.088Z,1.83
2018-12-29T09:48:57.696Z,1.84
2018-12-29T09:50:04.930Z,1.84
2018-12-29T09:51:11.704Z,1.84
2018-12-29T09:52:18.784Z,1.83
2018-12-29T09:53:25.912Z,1.85
2018-12-29T09:54:33.064Z,1.84
2018-12-29T09:55:40.285Z,1.86
2018-12-29T09:56:47.485Z,1.86
2018-12-29T09:57:54.719Z,1.85
2018-12-29T09:59:01.019Z,1.84
2018-12-29T10:00:08.225Z,1.85
2018-12-29T10:01:14.841Z,1.86
2018-12-29T10:02:22.108Z,1.86
2018-12-29T10:03:29.412Z,1.87
2018-12-29T10:04:35.560Z,1.88
2018-12-29T10:05:42.197Z,1.89
2018-12-29T10:06:49.381Z,1.90
2018-12-29T10:07:56.008Z,1.90
2018-12-29T10:09:03.109Z,1.90
2018-12-29T10:10:10.073Z,1.92
2018-12-29T10:11:16.697Z,1.91
2018-12-29T10:12:24.031Z,1.91
2018-12-29T10:13:30.682Z,1.91
2018-12-29T10:14:37.988Z,1.92
2018-12-29T10:15:44.624Z,1.92
2018-12-29T10:16:51.899Z,1.93
2018-12-29T10:17:58.560Z,1.92
2018-12-29T10:19:05.844Z,1.93
2018-12-29T10:20:12.612Z,1.93
2018-12-29T10:21:19.264Z,1.93
2018-12-29T10:22:26.693Z,1.94
2018-12-29T10:23:33.415Z,1.95
2018-12-29T10:24:40.145Z,1.94
2018-12-29T10:25:46.850Z,1.95
2018-12-29T10:26:53.625Z,1.94
2018-12-29T10:28:00.308Z,1.95
2018-12-29T10:29:07.665Z,1.94
2018-12-29T10:30:14.320Z,1.96
2018-12-29T10:31:21.086Z,1.96
2018-12-29T10:32:27.746Z,1.94
2018-12-29T10:33:34.612Z,1.95
2018-12-29T10:34:41.181Z,1.95
2018-12-29T10:35:48.328Z,1.98
2018-12-29T10:36:55.433Z,1.97
2018-12-29T10:38:02.281Z,1.98
2018-12-29T10:39:08.825Z,1.98
2018-12-29T10:40:16.092Z,1.98
2018-12-29T10:41:22.906Z,1.98
2018-12-29T10:42:30.143Z,1.98
2018-12-29T10:43:36.869Z,2.00
2018-12-29T10:44:43.450Z,1.99
2018-12-29T10:45:50.654Z,1.99
2018-12-29T10:46:57.308Z,2.00
2018-12-29T10:48:04.484Z,2.01
2018-12-29T10:49:11.169Z,2.00
2018-12-29T10:50:18.470Z,2.00
2018-12-29T10:51:25.342Z,2.00
2018-12-29T10:52:31.972Z,2.00
2018-12-29T10:53:38.729Z,2.01
2018-12-29T10:54:45.408Z,2.03
2018-12-29T10:55:52.149Z,2.02
2018-12-29T10:56:59.020Z,2.03
2018-12-29T10:58:05.786Z,2.03
2018-12-29T10:59:12.364Z,2.05
2018-12-29T11:00:19.552Z,2.03
2018-12-29T11:01:26.192Z,2.03
2018-12-29T11:02:33.356Z,2.03
2018-12-29T11:03:40.573Z,2.04
2018-12-29T11:04:47.208Z,2.05
2018-12-29T11:05:54.442Z,2.06
2018-12-29T11:07:01.068Z,2.04
2018-12-29T11:08:08.310Z,2.04
2018-12-29T11:09:15.016Z,2.05
2018-12-29T11:10:22.264Z,2.07
2018-12-29T11:11:28.873Z,2.06
2018-12-29T11:12:36.199Z,2.06
2018-12-29T11:13:42.951Z,2.06
2018-12-29T11:14:49.816Z,2.06
2018-12-29T11:15:56.412Z,2.06
2018-12-29T11:17:03.573Z,2.07
2018-12-29T11:18:10.210Z,2.08
2018-12-29T11:19:17.399Z,2.07
2018-12-29T11:20:24.162Z,2.08
2018-12-29T11:21:30.736Z,2.08
2018-12-29T11:22:37.916Z,2.09
2018-12-29T11:23:44.739Z,2.08
2018-12-29T11:24:51.632Z,2.09
2018-12-29T11:25:58.311Z,2.11
2018-12-29T11:27:05.006Z,2.10
2018-12-29T11:28:11.730Z,2.10
2018-12-29T11:29:18.540Z,2.11
2018-12-29T11:30:25.691Z,2.12
2018-12-29T11:31:32.477Z,2.12
2018-12-29T11:32:39.277Z,2.13
2018-12-29T11:33:46.088Z,2.15
2018-12-29T11:34:53.036Z,2.15
2018-12-29T11:35:59.940Z,2.15
2018-12-29T11:37:06.973Z,2.16
2018-12-29T11:38:13.752Z,2.16
2018-12-29T11:39:20.502Z,2.17
2018-12-29T11:40:27.169Z,2.15
2018-12-29T11:41:33.857Z,2.17
2018-12-29T11:42:40.419Z,2.17
2018-12-29T11:43:47.560Z,2.17
2018-12-29T11:44:54.833Z,2.18
2018-12-29T11:46:01.588Z,2.18
2018-12-29T11:47:08.904Z,2.19
2018-12-29T11:48:15.564Z,2.17
2018-12-29T11:49:22.723Z,2.19
2018-12-29T11:50:29.376Z,2.19
2018-12-29T11:51:36.676Z,2.19
2018-12-29T11:52:43.429Z,2.19
2018-12-29T11:53:50.649Z,2.20
2018-12-29T11:54:57.272Z,2.20
2018-12-29T11:56:04.536Z,2.21
2018-12-29T11:57:11.156Z,2.22
2018-12-29T11:58:18.236Z,2.22
2018-12-29T11:59:25.440Z,2.21
2018-12-29T12:00:32.119Z,2.22
2018-12-29T12:01:38.893Z,2.23
2018-12-29T12:02:45.545Z,2.23
2018-12-29T12:03:52.293Z,2.23
2018-12-29T12:04:58.972Z,2.23
2018-12-29T12:06:06.228Z,2.24
2018-12-29T12:07:12.908Z,2.23
2018-12-29T12:08:19.668Z,2.24
2018-12-29T12:09:26.240Z,2.24
2018-12-29T12:10:33.379Z,2.24
2018-12-29T12:11:40.522Z,2.25
2018-12-29T12:12:47.748Z,2.25
2018-12-29T12:13:54.504Z,2.26
2018-12-29T12:15:01.289Z,2.27
2018-12-29T12:16:08.051Z,2.27
2018-12-29T12:17:14.716Z,2.27
2018-12-29T12:18:22.093Z,2.26
2018-12-29T12:19:28.840Z,2.28
2018-12-29T12:20:35.616Z,2.27
2018-12-29T12:21:42.287Z,2.29
2018-12-29T12:22:48.860Z,2.29
2018-12-29T12:23:56.010Z,2.29
2018-12-29T12:25:03.305Z,2.30
2018-12-29T12:26:12.038Z,2.30
2018-12-29T12:27:17.956Z,2.31
2018-12-29T12:28:24.365Z,2.32
2018-12-29T12:29:32.867Z,2.32
2018-12-29T12:30:38.384Z,2.32
2018-12-29T12:31:45.778Z,2.34
2018-12-29T12:32:53.549Z,2.35
2018-12-29T12:33:59.286Z,2.35
2018-12-29T12:35:05.824Z,2.36
2018-12-29T12:36:12.471Z,2.36
2018-12-29T12:37:19.660Z,2.36
2018-12-29T12:38:26.278Z,2.36
2018-12-29T12:39:33.393Z,2.38
2018-12-29T12:40:40.903Z,2.39
2018-12-29T12:41:47.548Z,2.38
2018-12-29T12:42:55.026Z,2.39
2018-12-29T12:44:01.661Z,2.39
2018-12-29T12:45:08.857Z,2.40
2018-12-29T12:46:15.612Z,2.40
2018-12-29T12:47:22.384Z,2.41
2018-12-29T12:48:28.983Z,2.42
2018-12-29T12:49:36.333Z,2.42
2018-12-29T12:50:42.996Z,2.42
2018-12-29T12:51:49.768Z,2.42
2018-12-29T12:52:56.528Z,2.42
2018-12-29T12:54:03.280Z,2.43
2018-12-29T12:55:10.100Z,2.43
2018-12-29T12:56:16.928Z,2.44
2018-12-29T12:57:23.688Z,2.43
2018-12-29T12:58:30.372Z,2.44
2018-12-29T12:59:37.213Z,2.45
2018-12-29T13:00:43.985Z,2.45
2018-12-29T13:01:50.752Z,2.45
2018-12-29T13:02:57.422Z,2.45
2018-12-29T13:04:04.171Z,2.47
2018-12-29T13:05:10.831Z,2.48
2018-12-29T13:06:18.025Z,2.48
2018-12-29T13:07:24.780Z,2.48
2018-12-29T13:08:31.549Z,2.47
2018-12-29T13:09:38.400Z,2.48
2018-12-29T13:10:45.270Z,2.48
2018-12-29T13:11:52.040Z,2.48
2018-12-29T13:12:58.691Z,2.49
2018-12-29T13:14:05.984Z,2.50
2018-12-29T13:15:12.746Z,2.50
2018-12-29T13:16:20.020Z,2.48
2018-12-29T13:17:26.676Z,2.51
2018-12-29T13:18:33.872Z,2.51
2018-12-29T13:19:40.516Z,2.51
2018-12-29T13:20:47.586Z,2.52
2018-12-29T13:21:54.356Z,2.51
2018-12-29T13:23:01.017Z,2.53
2018-12-29T13:24:08.309Z,2.52
2018-12-29T13:25:15.155Z,2.52
2018-12-29T13:26:21.932Z,2.53
2018-12-29T13:27:28.586Z,2.54
2018-12-29T13:28:35.360Z,2.54
2018-12-29T13:29:42.109Z,2.53
2018-12-29T13:30:48.888Z,2.54
2018-12-29T13:31:55.664Z,2.55
2018-12-29T13:33:02.308Z,2.54
2018-12-29T13:34:09.009Z,2.55
2018-12-29T13:35:15.940Z,2.55
2018-12-29T13:36:22.660Z,2.57
2018-12-29T13:37:29.433Z,2.56
2018-12-29T13:38:36.278Z,2.57
2018-12-29T13:39:43.120Z,2.56
2018-12-29T13:40:49.865Z,2.58
2018-12-29T13:41:56.598Z,2.59
2018-12-29T13:43:03.836Z,2.58
2018-12-29T13:44:10.657Z,2.59
2018-12-29T13:45:17.409Z,2.60
2018-12-29T13:46:28.868Z,2.60
2018-12-29T13:47:31.087Z,2.60
2018-12-29T13:48:37.858Z,2.61
2018-12-29T13:49:44.624Z,2.62
2018-12-29T13:50:51.465Z,2.62
2018-12-29T13:51:58.185Z,2.62
2018-12-29T13:53:05.003Z,2.61
2018-12-29T13:54:11.557Z,2.64
2018-12-29T13:55:18.765Z,2.64
2018-12-29T13:56:25.908Z,2.64
2018-12-29T13:57:33.065Z,2.64
2018-12-29T13:58:40.256Z,2.65
2018-12-29T13:59:46.948Z,2.64
2018-12-29T14:00:53.665Z,2.64
2018-12-29T14:02:00.356Z,2.67
2018-12-29T14:03:07.164Z,2.67
2018-12-29T14:04:13.724Z,2.67
2018-12-29T14:05:20.987Z,2.67
2018-12-29T14:06:27.717Z,2.67
2018-12-29T14:07:34.477Z,2.69
2018-12-29T14:08:41.149Z,2.67
2018-12-29T14:09:47.809Z,2.69
2018-12-29T14:10:54.598Z,2.68
2018-12-29T14:12:01.325Z,2.71
2018-12-29T14:13:08.104Z,2.71
2018-12-29T14:14:14.922Z,2.71
2018-12-29T14:15:21.769Z,2.72
2018-12-29T14:16:28.501Z,2.71
2018-12-29T14:17:35.271Z,2.73
2018-12-29T14:18:41.836Z,2.72
2018-12-29T14:19:49.003Z,2.73
2018-12-29T14:20:56.191Z,2.74
2018-12-29T14:22:03.049Z,2.72
2018-12-29T14:23:10.149Z,2.74
2018-12-29T14:24:16.977Z,2.75
2018-12-29T14:25:23.704Z,2.75
2018-12-29T14:26:30.404Z,2.75
2018-12-29T14:27:37.264Z,2.75
2018-12-29T14:28:43.929Z,2.76
2018-12-29T14:29:51.218Z,2.76
2018-12-29T14:30:57.929Z,2.77
2018-12-29T14:32:04.748Z,2.77
2018-12-29T14:33:11.505Z,2.76
2018-12-29T14:34:18.168Z,2.77
2018-12-29T14:35:25.350Z,2.78
2018-12-29T14:36:32.145Z,2.78
2018-12-29T14:37:40.104Z,2.78
2018-12-29T14:38:45.749Z,2.78
2018-12-29T14:39:52.983Z,2.79
2018-12-29T14:40:59.701Z,2.79
2018-12-29T14:42:06.549Z,2.80
2018-12-29T14:43:13.170Z,2.79
2018-12-29T14:44:20.462Z,2.79
2018-12-29T14:45:27.105Z,2.81
2018-12-29T14:46:34.347Z,2.81
2018-12-29T14:47:41.009Z,2.82
2018-12-29T14:48:48.285Z,2.83
2018-12-29T14:49:55.038Z,2.81